LXJ655 KBZN-EGLF
Flight info
| Callsign | LXJ655 |
|---|---|
| Flight time | N/A |
| Altitude | 45000 |
| Route | NUKUW DCT ESTRO DCT GGW DCT WHIST DCT YDN DCT POPLR DCT 57N090W DCT DUGNO DCT TEFFO/N0500F450 DCT KAGLY/M087F450 DCT CLAVY DCT 65N050W 65N040W 64N030W 61N020W DCT GOMUP/N0497F450 DCT GINGA DCT SOSIM L15 KEPAD L151 KIDLI N859 CPT |
| Aircraft | GLF6/M-ICAO/LB1D1 |
Departure
| Time | 2026-04-24 22:42 |
|---|---|
| Airport | Bozeman Yellowstone International Airport (KBZN) |
Arrival
| Time | N/A |
|---|---|
| Airport | Farnborough Airport (EGLF) |
| Time | Latitude | Longitude | Altitude | Speed | Heading |
|---|---|---|---|---|---|
| 2026-04-24 22:17 | 45.77283 | -111.15173 | 4468 ft | 0 kts | 136° |
| 2026-04-24 22:35 | 45.77281 | -111.15170 | 4468 ft | 2 kts | 120° |
| 2026-04-24 22:35 | 45.77337 | -111.15156 | 4466 ft | 18 kts | 354° |
| 2026-04-24 22:36 | 45.77428 | -111.15138 | 4465 ft | 15 kts | 314° |
| 2026-04-24 22:36 | 45.77506 | -111.15253 | 4463 ft | 17 kts | 314° |
| 2026-04-24 22:36 | 45.77597 | -111.15383 | 4462 ft | 16 kts | 314° |
| 2026-04-24 22:36 | 45.77654 | -111.15462 | 4460 ft | 6 kts | 316° |
| 2026-04-24 22:37 | 45.77660 | -111.15470 | 4460 ft | 2 kts | 317° |
| 2026-04-24 22:37 | 45.77695 | -111.15507 | 4459 ft | 9 kts | 314° |
| 2026-04-24 22:37 | 45.77740 | -111.15569 | 4458 ft | 8 kts | 316° |
| 2026-04-24 22:37 | 45.77777 | -111.15619 | 4458 ft | 8 kts | 316° |
| 2026-04-24 22:38 | 45.77862 | -111.15745 | 4456 ft | 27 kts | 313° |
| 2026-04-24 22:38 | 45.78012 | -111.15962 | 4453 ft | 29 kts | 317° |
| 2026-04-24 22:38 | 45.78155 | -111.16156 | 4451 ft | 27 kts | 316° |
| 2026-04-24 22:38 | 45.78281 | -111.16335 | 4448 ft | 24 kts | 314° |
| 2026-04-24 22:39 | 45.78396 | -111.16504 | 4444 ft | 21 kts | 313° |
| 2026-04-24 22:39 | 45.78492 | -111.16622 | 4441 ft | 17 kts | 317° |
| 2026-04-24 22:39 | 45.78574 | -111.16735 | 4438 ft | 15 kts | 315° |
| 2026-04-24 22:39 | 45.78652 | -111.16828 | 4437 ft | 13 kts | 351° |
| 2026-04-24 22:40 | 45.78720 | -111.16757 | 4435 ft | 12 kts | 46° |
| 2026-04-24 22:40 | 45.78726 | -111.16748 | 4434 ft | 0 kts | 46° |
| 2026-04-24 22:40 | 45.78728 | -111.16746 | 4434 ft | 1 kts | 47° |
| 2026-04-24 22:41 | 45.78760 | -111.16697 | 4433 ft | 13 kts | 47° |
| 2026-04-24 22:41 | 45.78769 | -111.16592 | 4433 ft | 0 kts | 134° |
| 2026-04-24 22:41 | 45.78766 | -111.16587 | 4433 ft | 1 kts | 134° |
| 2026-04-24 22:41 | 45.78763 | -111.16582 | 4434 ft | 0 kts | 134° |
| 2026-04-24 22:42 | 45.78757 | -111.16574 | 4434 ft | 8 kts | 134° |
| 2026-04-24 22:42 | 45.78503 | -111.16221 | 4440 ft | 92 kts | 136° |
| 2026-04-24 22:42 | 45.77874 | -111.15341 | 4471 ft | 157 kts | 136° |
| 2026-04-24 22:42 | 45.77098 | -111.14264 | 5156 ft | 158 kts | 138° |
| 2026-04-24 22:43 | 45.76251 | -111.13114 | 5634 ft | 188 kts | 135° |
| 2026-04-24 22:43 | 45.75202 | -111.11552 | 5917 ft | 239 kts | 135° |
| 2026-04-24 22:43 | 45.74117 | -111.09950 | 7542 ft | 225 kts | 135° |
| 2026-04-24 22:43 | 45.73045 | -111.08383 | 8684 ft | 231 kts | 135° |
| 2026-04-24 22:44 | 45.71917 | -111.06746 | 9803 ft | 238 kts | 135° |
| 2026-04-24 22:44 | 45.70760 | -111.05074 | 10979 ft | 241 kts | 135° |
| 2026-04-24 22:44 | 45.69576 | -111.03368 | 12079 ft | 247 kts | 135° |
| 2026-04-24 22:44 | 45.68389 | -111.01660 | 13172 ft | 252 kts | 135° |
| 2026-04-24 22:45 | 45.67412 | -111.00255 | 14030 ft | 257 kts | 135° |
| 2026-04-24 22:45 | 45.66429 | -110.98151 | 15031 ft | 262 kts | 104° |
| 2026-04-24 22:45 | 45.66122 | -110.95620 | 15987 ft | 266 kts | 95° |
| 2026-04-24 22:45 | 45.65872 | -110.92960 | 17033 ft | 269 kts | 96° |
| 2026-04-24 22:46 | 45.65621 | -110.90340 | 18087 ft | 270 kts | 96° |
| 2026-04-24 22:46 | 45.65361 | -110.87650 | 18970 ft | 278 kts | 96° |
| 2026-04-24 22:46 | 45.65088 | -110.84863 | 19873 ft | 282 kts | 96° |
| 2026-04-24 22:46 | 45.64846 | -110.82104 | 20729 ft | 284 kts | 87° |
| 2026-04-24 22:47 | 45.65337 | -110.79406 | 21408 ft | 281 kts | 51° |
| 2026-04-24 22:47 | 45.66637 | -110.77412 | 22310 ft | 273 kts | 38° |
| 2026-04-24 22:47 | 45.68021 | -110.75571 | 23122 ft | 275 kts | 39° |
| 2026-04-24 22:47 | 45.69415 | -110.73713 | 23838 ft | 278 kts | 39° |
| 2026-04-24 22:48 | 45.70834 | -110.71825 | 24667 ft | 280 kts | 38° |
| 2026-04-24 22:48 | 45.72272 | -110.69913 | 25377 ft | 286 kts | 39° |
| 2026-04-24 22:48 | 45.73738 | -110.67964 | 26091 ft | 291 kts | 39° |
| 2026-04-24 22:48 | 45.75268 | -110.65932 | 26236 ft | 317 kts | 39° |
| 2026-04-24 22:49 | 45.76928 | -110.63721 | 26444 ft | 339 kts | 39° |
| 2026-04-24 22:49 | 45.78656 | -110.61414 | 27422 ft | 338 kts | 39° |
| 2026-04-24 22:49 | 45.80360 | -110.59140 | 28334 ft | 339 kts | 39° |
| 2026-04-24 22:49 | 45.82109 | -110.56803 | 28923 ft | 349 kts | 39° |
| 2026-04-24 22:50 | 45.83930 | -110.54369 | 29785 ft | 351 kts | 39° |
| 2026-04-24 22:50 | 45.85724 | -110.51968 | 30541 ft | 355 kts | 39° |
| 2026-04-24 22:50 | 45.87535 | -110.49545 | 31174 ft | 360 kts | 39° |
| 2026-04-24 22:50 | 45.89358 | -110.47101 | 31854 ft | 362 kts | 39° |
| 2026-04-24 22:51 | 45.91181 | -110.44653 | 32447 ft | 365 kts | 39° |
| 2026-04-24 22:51 | 45.93040 | -110.42157 | 32961 ft | 365 kts | 39° |
| 2026-04-24 22:51 | 45.94884 | -110.39676 | 33475 ft | 368 kts | 38° |
| 2026-04-24 22:51 | 45.96740 | -110.37181 | 33915 ft | 369 kts | 38° |
| 2026-04-24 22:52 | 45.98609 | -110.34664 | 34320 ft | 371 kts | 39° |
| 2026-04-24 22:52 | 46.00498 | -110.32121 | 34705 ft | 373 kts | 39° |
| 2026-04-24 22:52 | 46.02370 | -110.29593 | 35189 ft | 372 kts | 39° |
| 2026-04-24 22:52 | 46.04247 | -110.27058 | 35604 ft | 372 kts | 39° |
| 2026-04-24 22:53 | 46.06140 | -110.24500 | 35976 ft | 373 kts | 39° |
| 2026-04-24 22:53 | 46.08041 | -110.21926 | 36327 ft | 374 kts | 39° |
| 2026-04-24 22:53 | 46.09922 | -110.19379 | 36615 ft | 375 kts | 39° |
| 2026-04-24 22:53 | 46.11826 | -110.16798 | 36936 ft | 376 kts | 39° |
| 2026-04-24 22:54 | 46.13707 | -110.14246 | 37044 ft | 385 kts | 39° |
| 2026-04-24 22:54 | 46.15703 | -110.11536 | 37067 ft | 398 kts | 39° |
| 2026-04-24 22:54 | 46.17745 | -110.08760 | 37071 ft | 411 kts | 39° |
| 2026-04-24 22:54 | 46.19832 | -110.05915 | 37315 ft | 414 kts | 39° |
| 2026-04-24 22:55 | 46.21931 | -110.03053 | 37671 ft | 414 kts | 39° |
| 2026-04-24 22:55 | 46.24035 | -110.00183 | 37887 ft | 418 kts | 40° |
| 2026-04-24 22:55 | 46.26129 | -109.97321 | 38170 ft | 421 kts | 40° |
| 2026-04-24 22:55 | 46.28258 | -109.94410 | 38533 ft | 423 kts | 40° |
| 2026-04-24 22:56 | 46.30396 | -109.91482 | 38821 ft | 427 kts | 40° |
| 2026-04-24 22:56 | 46.32485 | -109.88620 | 39117 ft | 429 kts | 40° |
| 2026-04-24 22:56 | 46.34650 | -109.85648 | 39422 ft | 431 kts | 40° |
| 2026-04-24 22:56 | 46.36837 | -109.82645 | 39723 ft | 432 kts | 41° |
| 2026-04-24 22:57 | 46.39005 | -109.79662 | 40014 ft | 434 kts | 41° |
| 2026-04-24 22:57 | 46.41212 | -109.76622 | 40223 ft | 439 kts | 41° |
| 2026-04-24 22:57 | 46.43416 | -109.73583 | 40513 ft | 440 kts | 41° |
| 2026-04-24 22:57 | 46.45626 | -109.70534 | 40855 ft | 441 kts | 41° |
| 2026-04-24 22:58 | 46.47876 | -109.67423 | 41008 ft | 446 kts | 41° |
| 2026-04-24 22:58 | 46.50124 | -109.64313 | 41304 ft | 447 kts | 41° |
| 2026-04-24 22:58 | 46.52361 | -109.61215 | 41619 ft | 446 kts | 41° |
| 2026-04-24 22:58 | 46.54632 | -109.58064 | 41850 ft | 449 kts | 41° |
| 2026-04-24 22:59 | 46.56903 | -109.54911 | 41994 ft | 453 kts | 41° |
| 2026-04-24 22:59 | 46.59181 | -109.51745 | 42247 ft | 454 kts | 41° |
| 2026-04-24 22:59 | 46.63750 | -109.45380 | 42630 ft | 459 kts | 42° |
| 2026-04-24 23:00 | 46.66074 | -109.42138 | 42874 ft | 461 kts | 42° |
| 2026-04-24 23:00 | 46.68410 | -109.38874 | 43061 ft | 462 kts | 42° |
| 2026-04-24 23:00 | 46.70756 | -109.35593 | 43346 ft | 462 kts | 42° |
| 2026-04-24 23:00 | 46.73078 | -109.32339 | 43509 ft | 466 kts | 43° |
| 2026-04-24 23:01 | 46.75417 | -109.29059 | 43605 ft | 469 kts | 43° |
| 2026-04-24 23:01 | 46.77781 | -109.25738 | 43903 ft | 468 kts | 43° |
| 2026-04-24 23:01 | 46.80135 | -109.22428 | 44057 ft | 471 kts | 43° |
| 2026-04-24 23:01 | 46.82484 | -109.19121 | 44217 ft | 473 kts | 43° |
| 2026-04-24 23:02 | 46.84850 | -109.15786 | 44418 ft | 475 kts | 43° |
| 2026-04-24 23:02 | 46.87233 | -109.12422 | 44571 ft | 477 kts | 43° |
| 2026-04-24 23:02 | 46.89617 | -109.09052 | 44739 ft | 479 kts | 43° |
| 2026-04-24 23:02 | 46.92015 | -109.05660 | 44896 ft | 481 kts | 43° |
| 2026-04-24 23:03 | 46.94429 | -109.02236 | 44908 ft | 487 kts | 44° |
| 2026-04-24 23:03 | 46.98848 | -108.94557 | 44912 ft | 499 kts | 50° |
| 2026-04-24 23:04 | 47.03251 | -108.86570 | 44928 ft | 509 kts | 50° |
| 2026-04-24 23:04 | 47.07750 | -108.78375 | 44931 ft | 517 kts | 50° |
| 2026-04-24 23:05 | 47.12291 | -108.70081 | 44924 ft | 519 kts | 51° |
| 2026-04-24 23:05 | 47.16774 | -108.61867 | 44932 ft | 517 kts | 50° |
| 2026-04-24 23:06 | 47.21283 | -108.53580 | 44945 ft | 517 kts | 50° |
| 2026-04-24 23:06 | 47.25749 | -108.45348 | 44945 ft | 517 kts | 50° |
| 2026-04-24 23:07 | 47.30218 | -108.37087 | 44709 ft | 503 kts | 50° |
| 2026-04-24 23:07 | 47.32353 | -108.33132 | 45313 ft | 491 kts | 51° |
| 2026-04-24 23:07 | 47.34518 | -108.29115 | 44775 ft | 500 kts | 51° |
| 2026-04-24 23:07 | 47.36663 | -108.25128 | 44930 ft | 499 kts | 51° |
| 2026-04-24 23:08 | 47.38835 | -108.21086 | 44938 ft | 500 kts | 51° |
| 2026-04-24 23:08 | 47.43174 | -108.12994 | 44937 ft | 504 kts | 51° |
| 2026-04-24 23:09 | 47.47515 | -108.04873 | 44915 ft | 507 kts | 51° |
| 2026-04-24 23:09 | 47.51884 | -107.96675 | 44903 ft | 509 kts | 51° |
| 2026-04-24 23:10 | 47.56296 | -107.88371 | 44894 ft | 510 kts | 51° |
| 2026-04-24 23:10 | 47.60656 | -107.80141 | 44894 ft | 511 kts | 51° |
| 2026-04-24 23:11 | 47.65037 | -107.71847 | 44910 ft | 510 kts | 51° |
| 2026-04-24 23:11 | 47.69409 | -107.63544 | 44900 ft | 510 kts | 51° |
| 2026-04-24 23:12 | 47.73790 | -107.55197 | 44885 ft | 509 kts | 51° |
| 2026-04-24 23:12 | 47.78125 | -107.46915 | 44864 ft | 507 kts | 51° |
| 2026-04-24 23:13 | 47.82452 | -107.38620 | 44860 ft | 505 kts | 51° |
| 2026-04-24 23:13 | 47.86742 | -107.30373 | 44869 ft | 503 kts | 52° |
| 2026-04-24 23:14 | 47.91018 | -107.22128 | 44856 ft | 501 kts | 52° |
| 2026-04-24 23:14 | 47.95283 | -107.13879 | 44855 ft | 498 kts | 52° |
| 2026-04-24 23:15 | 47.99500 | -107.05698 | 44873 ft | 495 kts | 52° |
| 2026-04-24 23:15 | 48.03663 | -106.97598 | 44891 ft | 491 kts | 52° |
| 2026-04-24 23:16 | 48.07793 | -106.89536 | 44864 ft | 487 kts | 52° |
| 2026-04-24 23:16 | 48.11924 | -106.81451 | 44891 ft | 483 kts | 52° |
| 2026-04-24 23:17 | 48.15992 | -106.73464 | 44878 ft | 479 kts | 52° |
| 2026-04-24 23:17 | 48.20010 | -106.65554 | 44861 ft | 476 kts | 52° |
| 2026-04-24 23:18 | 48.23864 | -106.57574 | 44872 ft | 471 kts | 54° |
| 2026-04-24 23:18 | 48.27610 | -106.49531 | 44868 ft | 466 kts | 54° |
| 2026-04-24 23:19 | 48.31309 | -106.41579 | 44879 ft | 463 kts | 54° |
| 2026-04-24 23:19 | 48.35002 | -106.33616 | 44822 ft | 459 kts | 55° |
| 2026-04-24 23:20 | 48.38644 | -106.25739 | 44806 ft | 455 kts | 55° |
| 2026-04-24 23:20 | 48.42249 | -106.17918 | 44817 ft | 451 kts | 54° |
| 2026-04-24 23:21 | 48.45813 | -106.10166 | 44808 ft | 446 kts | 55° |
| 2026-04-24 23:21 | 48.49332 | -106.02488 | 44808 ft | 442 kts | 54° |
| 2026-04-24 23:22 | 48.52808 | -105.94886 | 44802 ft | 437 kts | 55° |
| 2026-04-24 23:22 | 48.56239 | -105.87358 | 44804 ft | 433 kts | 55° |
| 2026-04-24 23:23 | 48.59640 | -105.79877 | 44803 ft | 428 kts | 55° |
| 2026-04-24 23:23 | 48.62999 | -105.72467 | 44798 ft | 423 kts | 55° |
| 2026-04-24 23:24 | 48.66325 | -105.65107 | 44786 ft | 419 kts | 55° |
| 2026-04-24 23:24 | 48.69579 | -105.57893 | 44774 ft | 414 kts | 55° |
| 2026-04-24 23:25 | 48.72789 | -105.50753 | 44776 ft | 408 kts | 55° |
| 2026-04-24 23:25 | 48.75956 | -105.43692 | 44774 ft | 403 kts | 55° |
| 2026-04-24 23:26 | 48.79076 | -105.36715 | 44765 ft | 397 kts | 55° |
| 2026-04-24 23:26 | 48.82146 | -105.29833 | 44772 ft | 391 kts | 56° |
| 2026-04-24 23:27 | 48.85177 | -105.23025 | 44761 ft | 385 kts | 56° |
| 2026-04-24 23:27 | 48.88132 | -105.16369 | 44763 ft | 378 kts | 56° |
| 2026-04-24 23:28 | 48.91037 | -105.09807 | 44767 ft | 372 kts | 56° |
| 2026-04-24 23:28 | 48.93882 | -105.03366 | 44764 ft | 366 kts | 56° |
| 2026-04-24 23:29 | 48.96698 | -104.96975 | 44780 ft | 361 kts | 56° |
| 2026-04-24 23:29 | 48.99464 | -104.90686 | 44772 ft | 356 kts | 56° |
| 2026-04-24 23:30 | 49.02204 | -104.84438 | 44775 ft | 357 kts | 56° |
| 2026-04-24 23:30 | 49.04967 | -104.78125 | 44767 ft | 358 kts | 56° |
| 2026-04-24 23:31 | 49.07738 | -104.71777 | 44757 ft | 360 kts | 56° |
| 2026-04-24 23:31 | 49.10505 | -104.65424 | 44757 ft | 362 kts | 57° |
| 2026-04-24 23:32 | 49.13310 | -104.58967 | 44752 ft | 364 kts | 57° |
| 2026-04-24 23:32 | 49.16104 | -104.52521 | 44761 ft | 367 kts | 56° |
| 2026-04-24 23:33 | 49.18922 | -104.46004 | 44753 ft | 369 kts | 57° |
| 2026-04-24 23:33 | 49.21762 | -104.39417 | 44762 ft | 372 kts | 56° |
| 2026-04-24 23:34 | 49.24622 | -104.32774 | 44746 ft | 376 kts | 57° |
| 2026-04-24 23:34 | 49.27502 | -104.26060 | 44753 ft | 380 kts | 57° |
| 2026-04-24 23:35 | 49.30407 | -104.19275 | 44751 ft | 384 kts | 57° |
| 2026-04-24 23:35 | 49.33344 | -104.12397 | 44748 ft | 388 kts | 57° |
| 2026-04-24 23:36 | 49.36317 | -104.05415 | 44758 ft | 393 kts | 57° |
| 2026-04-24 23:36 | 49.39303 | -103.98385 | 44753 ft | 398 kts | 57° |